Terminal Aerodrome Forecast
Issued by NWS Springfield, MO

Home | Current Version | Previous Version | Text Only | Print | Product List | Glossary On
Versions: 1 2 3 4 5 6 7 8 9 10 11 12 13 14 15 16 17 18 19 20 21 22 23
989
FTUS43 KSGF 181013 AAB
TAFSGF
TAF AMD
KSGF 181013Z 1810/1906 23005KT P6SM OVC025
     FM181900 24007KT P6SM SCT035
     FM182000 23007KT P6SM FEW250=

USA.gov is the U.S. government's official web portal to all federal, state and local government web resources and services.